Peotone Weather

Nearby METAR Reports

 

KIGQ - Lansing, Illinois, USA
Distance from station: NE 19mi, 30km
Updated: Mon, 16-Dec-2019 12:55am CST
Light snow, Overcast
Light snow, Overcast
 Wind from calm
Wind: Calm
Temperature: 25°F , -4°C
Dew Point: 25°F , -4°C
Humidity: 100%
Barometer: 30.11 inHg , 1019.6 hPa
Summary: Light Snow
Clouds: Overcast
Visibility: 2 1/2 miles , 4 km
Cloud details: Overcast 3500 ft
2019/12/16 06:55 KIGQ 160655Z AUTO 00000KT 2 1/2SM -SN OVC035 M04/M04 A3011 RMK AO2 T10401045
KIKK - Kankakee, Illinois, USA
Distance from station: S 19mi, 30km
Updated: Mon, 16-Dec-2019 12:35am CST
Light snow, Overcast
Light snow, Overcast
 Wind from calm
Wind: Calm
Temperature: 25°F , -4°C
Dew Point: 25°F , -4°C
Humidity: 100%
Barometer: 30.11 inHg , 1019.6 hPa
Summary: Light Snow
Clouds: Overcast
Visibility: 7 miles , 11 km
Cloud details: Partly cloudy 2100 ft
Partly cloudy 2900 ft
Overcast 5000 ft
2019/12/16 06:35 KIKK 160635Z AUTO 00000KT 7SM -SN SCT021 SCT029 OVC050 M04/M04 A3011 RMK AO2 T10371045
 
KSJC - Joliet, Illinois, USA
Distance from station: WNW 24mi, 38km
Updated: Mon, 16-Dec-2019 12:53am CST
Mostly cloudy
Mostly cloudy
 Wind from SE
Wind: SE 3 mph , 6 km/h
Temperature: 46°F , 8°C
Dew Point: 41°F , 5°C
Humidity: 82%
Barometer: 30.29 inHg , 1025.7 hPa
Clouds: Mostly cloudy
Visibility: 10 miles , 16 km
Cloud details: Mostly cloudy 18000 ft
2019/12/16 06:53 KSJC 160653Z 13003KT 10SM BKN180 08/05 A3029 RMK AO2 SLP255 T00780050
KLOT - Romeoville, Illinois, USA
Distance from station: NW 26mi, 41km
Updated: Mon, 16-Dec-2019 12:35am CST
Light snow, Overcast
Light snow, Overcast
 Wind from calm
Wind: Calm
Temperature: 23°F , -5°C
Dew Point: 23°F , -5°C
Humidity: 100%
Barometer: 30.12 inHg , 1020 hPa
Summary: Light Snow
Clouds: Overcast
Visibility: 4 miles , 6 km
Cloud details: Overcast 1400 ft
2019/12/16 06:35 KLOT 160635Z AUTO 00000KT 4SM -SN OVC014 M05/M05 A3012 RMK AO2 LTG DSNT S T10461052
 
KMDW - Midway Airport Chicago, Illinois, USA
Distance from station: N 31mi, 50km
Updated: Mon, 16-Dec-2019 12:53am CST
Light snow, Mist, Overcast
Light snow, Mist, Overcast
 Wind from N
Wind: N 5 mph , 7 km/h
Temperature: 27°F , -3°C
Wind Chill: 21°F , -6°C
Dew Point: 21°F , -6°C
Humidity: 80%
Barometer: 30.12 inHg , 1020 hPa
Summary: Light snow, Mist
Clouds: Overcast
Visibility: 3 miles , 5 km
Cloud details: Overcast 3900 ft
2019/12/16 06:53 KMDW 160653Z 35004KT 3SM -SN BR OVC039 M03/M06 A3012 RMK AO2 SLP213 P0000 T10331061
KC09 - Morris, Illinois, USA
Distance from station: W 34mi, 54km
Updated: Mon, 16-Dec-2019 12:35am CST
Light snow, Mostly cloudy
Light snow, Mostly cloudy
 Wind from calm
Wind: Calm
Temperature: 25°F , -4°C
Dew Point: 23°F , -5°C
Humidity: 93%
Barometer: 30.12 inHg , 1020 hPa
Summary: Light Snow
Clouds: Mostly cloudy
Visibility: 3 miles , 5 km
Cloud details: Mostly cloudy 2600 ft
Mostly cloudy 3100 ft
2019/12/16 06:35 KC09 160635Z AUTO 00000KT 3SM -SN BKN026 BKN031 M04/M05 A3012 RMK AO2 P0001 T10451048

Metar display script from Saratoga-Weather.org